THY854 LTFM-LTCI
Flight info
| Callsign | THY854 |
|---|---|
| Flight time | 1h 52m |
| Altitude | 39000 |
| Route | VICEN1R/35L VICEN UT57 VEVUD UT341 BAG UL614 EZS UT368 BAYIR UG81 BEYAZ |
| Aircraft | A319/M-SDE3FGHIRWY/LB1 |
Departure
| Time | 2026-05-07 15:23 |
|---|---|
| Airport | İstanbul Airport (LTFM) |
Arrival
| Time | 2026-05-07 17:16 |
|---|---|
| Airport | Van Ferit Melen Airport (LTCI) |
| Time | Latitude | Longitude | Altitude | Speed | Heading |
|---|---|---|---|---|---|
| 2026-05-07 14:53 | 41.26640 | 28.73746 | 333 ft | 0 kts | 270° |
| 2026-05-07 15:14 | 41.26640 | 28.73775 | 332 ft | 3 kts | 270° |
| 2026-05-07 15:14 | 41.26640 | 28.73811 | 333 ft | 3 kts | 270° |
| 2026-05-07 15:14 | 41.26639 | 28.73845 | 332 ft | 3 kts | 284° |
| 2026-05-07 15:14 | 41.26623 | 28.73869 | 333 ft | 3 kts | 339° |
| 2026-05-07 15:15 | 41.26611 | 28.73871 | 333 ft | 0 kts | 2° |
| 2026-05-07 15:18 | 41.26644 | 28.73873 | 332 ft | 9 kts | 2° |
| 2026-05-07 15:18 | 41.26717 | 28.73876 | 332 ft | 11 kts | 359° |
| 2026-05-07 15:18 | 41.26808 | 28.73873 | 332 ft | 15 kts | 359° |
| 2026-05-07 15:18 | 41.26912 | 28.73870 | 332 ft | 14 kts | 359° |
| 2026-05-07 15:19 | 41.27013 | 28.73855 | 332 ft | 15 kts | 330° |
| 2026-05-07 15:19 | 41.27038 | 28.73726 | 332 ft | 15 kts | 269° |
| 2026-05-07 15:19 | 41.27037 | 28.73577 | 332 ft | 16 kts | 270° |
| 2026-05-07 15:19 | 41.27035 | 28.73423 | 333 ft | 17 kts | 269° |
| 2026-05-07 15:20 | 41.27034 | 28.73196 | 332 ft | 18 kts | 269° |
| 2026-05-07 15:20 | 41.27031 | 28.73089 | 332 ft | 16 kts | 268° |
| 2026-05-07 15:20 | 41.26971 | 28.72983 | 333 ft | 16 kts | 177° |
| 2026-05-07 15:20 | 41.26853 | 28.72994 | 332 ft | 17 kts | 175° |
| 2026-05-07 15:21 | 41.26735 | 28.72983 | 332 ft | 15 kts | 212° |
| 2026-05-07 15:21 | 41.26706 | 28.72848 | 333 ft | 16 kts | 269° |
| 2026-05-07 15:21 | 41.26704 | 28.72695 | 333 ft | 17 kts | 270° |
| 2026-05-07 15:21 | 41.26703 | 28.72590 | 333 ft | 9 kts | 270° |
| 2026-05-07 15:22 | 41.26718 | 28.72521 | 332 ft | 8 kts | 328° |
| 2026-05-07 15:22 | 41.26739 | 28.72513 | 332 ft | 0 kts | 358° |
| 2026-05-07 15:23 | 41.26806 | 28.72511 | 333 ft | 39 kts | 360° |
| 2026-05-07 15:23 | 41.27353 | 28.72503 | 333 ft | 114 kts | 360° |
| 2026-05-07 15:23 | 41.28329 | 28.72475 | 561 ft | 153 kts | 0° |
| 2026-05-07 15:23 | 41.29379 | 28.72471 | 1276 ft | 153 kts | 0° |
| 2026-05-07 15:24 | 41.30432 | 28.72511 | 1999 ft | 155 kts | 359° |
| 2026-05-07 15:24 | 41.31514 | 28.72555 | 2559 ft | 162 kts | 358° |
| 2026-05-07 15:24 | 41.32697 | 28.72576 | 2996 ft | 178 kts | 357° |
| 2026-05-07 15:24 | 41.33982 | 28.72595 | 3454 ft | 195 kts | 357° |
| 2026-05-07 15:25 | 41.35402 | 28.72611 | 3890 ft | 216 kts | 355° |
| 2026-05-07 15:25 | 41.36883 | 28.72113 | 4380 ft | 230 kts | 324° |
| 2026-05-07 15:25 | 41.38027 | 28.70567 | 5033 ft | 241 kts | 307° |
| 2026-05-07 15:25 | 41.39259 | 28.68988 | 5608 ft | 260 kts | 329° |
| 2026-05-07 15:26 | 41.41016 | 28.68326 | 6447 ft | 271 kts | 357° |
| 2026-05-07 15:26 | 41.42873 | 28.68802 | 6984 ft | 277 kts | 23° |
| 2026-05-07 15:26 | 41.44388 | 28.70379 | 7465 ft | 283 kts | 51° |
| 2026-05-07 15:26 | 41.45219 | 28.72732 | 7964 ft | 288 kts | 78° |
| 2026-05-07 15:27 | 41.45289 | 28.75385 | 8494 ft | 292 kts | 93° |
| 2026-05-07 15:27 | 41.45089 | 28.78085 | 9097 ft | 299 kts | 96° |
| 2026-05-07 15:27 | 41.44830 | 28.80833 | 10051 ft | 301 kts | 96° |
| 2026-05-07 15:27 | 41.44556 | 28.83608 | 10830 ft | 307 kts | 96° |
| 2026-05-07 15:28 | 41.44272 | 28.86462 | 11390 ft | 321 kts | 96° |
| 2026-05-07 15:28 | 41.43975 | 28.89434 | 11921 ft | 332 kts | 96° |
| 2026-05-07 15:28 | 41.43493 | 28.92463 | 12519 ft | 341 kts | 107° |
| 2026-05-07 15:28 | 41.42816 | 28.95485 | 13177 ft | 342 kts | 101° |
| 2026-05-07 15:29 | 41.42408 | 28.98637 | 13837 ft | 345 kts | 97° |
| 2026-05-07 15:29 | 41.42068 | 29.01800 | 14467 ft | 348 kts | 96° |
| 2026-05-07 15:29 | 41.41734 | 29.04990 | 14665 ft | 352 kts | 96° |
| 2026-05-07 15:29 | 41.41398 | 29.08166 | 14415 ft | 348 kts | 96° |
| 2026-05-07 15:30 | 41.41063 | 29.11338 | 14178 ft | 346 kts | 96° |
| 2026-05-07 15:30 | 41.40727 | 29.14512 | 14086 ft | 346 kts | 96° |
| 2026-05-07 15:30 | 41.40387 | 29.17697 | 14074 ft | 346 kts | 97° |
| 2026-05-07 15:30 | 41.39709 | 29.20751 | 14067 ft | 348 kts | 117° |
| 2026-05-07 15:31 | 41.38329 | 29.23383 | 14084 ft | 350 kts | 128° |
| 2026-05-07 15:31 | 41.36767 | 29.25869 | 14104 ft | 353 kts | 129° |
| 2026-05-07 15:31 | 41.35174 | 29.28401 | 14572 ft | 359 kts | 128° |
| 2026-05-07 15:31 | 41.33597 | 29.30976 | 15407 ft | 359 kts | 128° |
| 2026-05-07 15:32 | 41.32048 | 29.33567 | 16112 ft | 363 kts | 127° |
| 2026-05-07 15:32 | 41.30479 | 29.36235 | 16749 ft | 368 kts | 126° |
| 2026-05-07 15:32 | 41.28915 | 29.38921 | 17383 ft | 372 kts | 126° |
| 2026-05-07 15:32 | 41.27323 | 29.41667 | 18024 ft | 377 kts | 126° |
| 2026-05-07 15:33 | 41.25715 | 29.44449 | 18645 ft | 381 kts | 126° |
| 2026-05-07 15:33 | 41.24088 | 29.47266 | 19238 ft | 385 kts | 126° |
| 2026-05-07 15:33 | 41.22432 | 29.50132 | 19838 ft | 390 kts | 126° |
| 2026-05-07 15:33 | 41.20769 | 29.53011 | 20401 ft | 394 kts | 125° |
| 2026-05-07 15:34 | 41.19092 | 29.55911 | 20942 ft | 399 kts | 125° |
| 2026-05-07 15:34 | 41.17408 | 29.58822 | 21482 ft | 404 kts | 125° |
| 2026-05-07 15:34 | 41.15681 | 29.61803 | 22023 ft | 408 kts | 125° |
| 2026-05-07 15:34 | 41.13959 | 29.64774 | 22537 ft | 413 kts | 125° |
| 2026-05-07 15:35 | 41.12209 | 29.67800 | 23035 ft | 417 kts | 125° |
| 2026-05-07 15:35 | 41.10422 | 29.70890 | 23529 ft | 422 kts | 125° |
| 2026-05-07 15:35 | 41.08637 | 29.73973 | 24036 ft | 426 kts | 125° |
| 2026-05-07 15:35 | 41.06838 | 29.77073 | 24536 ft | 430 kts | 125° |
| 2026-05-07 15:36 | 41.04993 | 29.80243 | 25039 ft | 434 kts | 125° |
| 2026-05-07 15:36 | 41.03155 | 29.83398 | 25529 ft | 437 kts | 126° |
| 2026-05-07 15:36 | 41.01281 | 29.86610 | 25982 ft | 442 kts | 126° |
| 2026-05-07 15:36 | 40.99407 | 29.89815 | 26458 ft | 445 kts | 126° |
| 2026-05-07 15:37 | 40.97525 | 29.93032 | 26921 ft | 448 kts | 126° |
| 2026-05-07 15:37 | 40.95596 | 29.96325 | 27390 ft | 451 kts | 125° |
| 2026-05-07 15:37 | 40.94327 | 29.98489 | 27697 ft | 453 kts | 126° |
| 2026-05-07 15:37 | 40.91737 | 30.02904 | 28288 ft | 457 kts | 126° |
| 2026-05-07 15:38 | 40.89777 | 30.06240 | 28695 ft | 460 kts | 126° |
| 2026-05-07 15:38 | 40.87809 | 30.09566 | 29075 ft | 464 kts | 126° |
| 2026-05-07 15:38 | 40.85826 | 30.12909 | 29458 ft | 467 kts | 126° |
| 2026-05-07 15:38 | 40.83817 | 30.16296 | 29847 ft | 470 kts | 126° |
| 2026-05-07 15:39 | 40.81796 | 30.19709 | 30241 ft | 473 kts | 126° |
| 2026-05-07 15:39 | 40.79764 | 30.23145 | 30619 ft | 476 kts | 125° |
| 2026-05-07 15:39 | 40.77713 | 30.26613 | 30997 ft | 479 kts | 126° |
| 2026-05-07 15:39 | 40.75687 | 30.30035 | 31366 ft | 481 kts | 126° |
| 2026-05-07 15:40 | 40.73628 | 30.33510 | 31764 ft | 483 kts | 126° |
| 2026-05-07 15:40 | 40.71550 | 30.37013 | 32134 ft | 485 kts | 125° |
| 2026-05-07 15:40 | 40.69483 | 30.40493 | 32625 ft | 484 kts | 126° |
| 2026-05-07 15:40 | 40.67409 | 30.43985 | 33179 ft | 482 kts | 126° |
| 2026-05-07 15:41 | 40.65346 | 30.47453 | 33700 ft | 480 kts | 126° |
| 2026-05-07 15:41 | 40.63304 | 30.50887 | 34179 ft | 478 kts | 126° |
| 2026-05-07 15:41 | 40.61268 | 30.54308 | 34598 ft | 478 kts | 126° |
| 2026-05-07 15:41 | 40.59227 | 30.57732 | 34948 ft | 478 kts | 126° |
| 2026-05-07 15:42 | 40.57176 | 30.61163 | 35305 ft | 477 kts | 126° |
| 2026-05-07 15:42 | 40.55129 | 30.64587 | 35658 ft | 476 kts | 125° |
| 2026-05-07 15:42 | 40.53154 | 30.68112 | 35994 ft | 474 kts | 122° |
| 2026-05-07 15:42 | 40.51387 | 30.71718 | 36298 ft | 472 kts | 118° |
| 2026-05-07 15:43 | 40.49795 | 30.75510 | 36642 ft | 470 kts | 114° |
| 2026-05-07 15:43 | 40.48420 | 30.79393 | 37031 ft | 467 kts | 109° |
| 2026-05-07 15:43 | 40.47259 | 30.83351 | 37408 ft | 464 kts | 105° |
| 2026-05-07 15:43 | 40.46272 | 30.87409 | 37727 ft | 463 kts | 103° |
| 2026-05-07 15:44 | 40.45340 | 30.91441 | 37959 ft | 465 kts | 103° |
| 2026-05-07 15:44 | 40.44413 | 30.95449 | 38182 ft | 466 kts | 103° |
| 2026-05-07 15:44 | 40.43456 | 30.99545 | 38394 ft | 468 kts | 103° |
| 2026-05-07 15:44 | 40.42500 | 31.03602 | 38636 ft | 468 kts | 103° |
| 2026-05-07 15:45 | 40.41533 | 31.07677 | 38820 ft | 469 kts | 104° |
| 2026-05-07 15:45 | 40.40568 | 31.11725 | 39007 ft | 470 kts | 104° |
| 2026-05-07 15:45 | 40.39579 | 31.15859 | 39110 ft | 471 kts | 104° |
| 2026-05-07 15:45 | 40.38617 | 31.19896 | 39098 ft | 471 kts | 103° |
| 2026-05-07 15:46 | 40.36379 | 31.32333 | 39112 ft | 469 kts | 98° |
| 2026-05-07 15:47 | 40.35030 | 31.40728 | 39120 ft | 473 kts | 98° |
| 2026-05-07 15:47 | 40.33660 | 31.49172 | 39118 ft | 480 kts | 98° |
| 2026-05-07 15:48 | 40.32244 | 31.57810 | 39112 ft | 486 kts | 98° |
| 2026-05-07 15:48 | 40.31065 | 31.64962 | 39146 ft | 487 kts | 98° |
| 2026-05-07 15:50 | 40.24699 | 32.00623 | 39126 ft | 489 kts | 103° |
| 2026-05-07 15:51 | 40.22825 | 32.09198 | 39127 ft | 489 kts | 102° |
| 2026-05-07 15:51 | 40.20640 | 32.19209 | 39124 ft | 488 kts | 103° |
| 2026-05-07 15:52 | 40.18766 | 32.27778 | 39128 ft | 489 kts | 103° |
| 2026-05-07 15:52 | 40.16873 | 32.36402 | 39121 ft | 489 kts | 103° |
| 2026-05-07 15:53 | 40.14996 | 32.44917 | 39119 ft | 489 kts | 102° |
| 2026-05-07 15:53 | 40.13111 | 32.53441 | 39120 ft | 489 kts | 102° |
| 2026-05-07 15:54 | 40.11233 | 32.61916 | 39126 ft | 488 kts | 102° |
| 2026-05-07 15:54 | 40.09331 | 32.70471 | 39130 ft | 488 kts | 103° |
| 2026-05-07 15:55 | 40.07758 | 32.77510 | 39123 ft | 488 kts | 103° |
| 2026-05-07 15:55 | 40.05541 | 32.85957 | 39126 ft | 490 kts | 108° |
| 2026-05-07 15:56 | 40.02697 | 32.95605 | 39139 ft | 490 kts | 108° |
| 2026-05-07 15:56 | 40.00257 | 33.03860 | 39130 ft | 489 kts | 108° |
| 2026-05-07 15:57 | 39.97814 | 33.12125 | 39134 ft | 490 kts | 108° |
| 2026-05-07 15:57 | 39.95761 | 33.19052 | 39119 ft | 491 kts | 108° |
| 2026-05-07 15:58 | 39.92971 | 33.28444 | 39118 ft | 490 kts | 108° |
| 2026-05-07 15:58 | 39.90507 | 33.36704 | 39118 ft | 490 kts | 108° |
| 2026-05-07 15:59 | 39.88010 | 33.45000 | 39110 ft | 490 kts | 108° |
| 2026-05-07 15:59 | 39.85526 | 33.53225 | 39113 ft | 490 kts | 108° |
| 2026-05-07 16:00 | 39.83157 | 33.61468 | 39107 ft | 488 kts | 104° |
| 2026-05-07 16:00 | 39.81322 | 33.70000 | 39110 ft | 487 kts | 101° |
| 2026-05-07 16:01 | 39.79648 | 33.78443 | 39107 ft | 486 kts | 101° |
| 2026-05-07 16:01 | 39.77916 | 33.86924 | 39099 ft | 486 kts | 103° |
| 2026-05-07 16:02 | 39.75718 | 33.95275 | 39118 ft | 488 kts | 107° |
| 2026-05-07 16:02 | 39.73378 | 34.03493 | 39103 ft | 488 kts | 107° |
| 2026-05-07 16:03 | 39.71024 | 34.11763 | 39114 ft | 488 kts | 107° |
| 2026-05-07 16:03 | 39.68686 | 34.19981 | 39113 ft | 489 kts | 107° |
| 2026-05-07 16:04 | 39.66329 | 34.28256 | 39123 ft | 489 kts | 107° |
| 2026-05-07 16:04 | 39.63976 | 34.36485 | 39126 ft | 488 kts | 108° |
| 2026-05-07 16:05 | 39.61602 | 34.44726 | 39131 ft | 488 kts | 108° |
| 2026-05-07 16:05 | 39.59205 | 34.52991 | 39127 ft | 488 kts | 108° |
| 2026-05-07 16:06 | 39.56815 | 34.61237 | 39133 ft | 488 kts | 108° |
| 2026-05-07 16:06 | 39.54413 | 34.69526 | 39136 ft | 489 kts | 108° |
| 2026-05-07 16:07 | 39.52036 | 34.77716 | 39142 ft | 489 kts | 108° |
| 2026-05-07 16:07 | 39.49624 | 34.85989 | 39142 ft | 489 kts | 108° |
| 2026-05-07 16:08 | 39.47219 | 34.94206 | 39147 ft | 489 kts | 108° |
| 2026-05-07 16:08 | 39.44792 | 35.02478 | 39149 ft | 489 kts | 108° |
| 2026-05-07 16:09 | 39.42375 | 35.10698 | 39137 ft | 489 kts | 109° |
| 2026-05-07 16:09 | 39.39951 | 35.18901 | 39143 ft | 489 kts | 108° |
| 2026-05-07 16:10 | 39.37517 | 35.27259 | 39148 ft | 489 kts | 108° |
| 2026-05-07 16:10 | 39.35118 | 35.35545 | 39143 ft | 490 kts | 108° |
| 2026-05-07 16:11 | 39.32728 | 35.43774 | 39151 ft | 490 kts | 108° |
| 2026-05-07 16:11 | 39.30322 | 35.52029 | 39154 ft | 491 kts | 108° |
| 2026-05-07 16:12 | 39.27912 | 35.60273 | 39161 ft | 491 kts | 108° |
| 2026-05-07 16:12 | 39.25507 | 35.68478 | 39147 ft | 491 kts | 109° |
| 2026-05-07 16:13 | 39.23096 | 35.76703 | 39142 ft | 491 kts | 109° |
| 2026-05-07 16:13 | 39.20677 | 35.84919 | 39153 ft | 491 kts | 109° |
| 2026-05-07 16:14 | 39.18243 | 35.93144 | 39156 ft | 491 kts | 109° |
| 2026-05-07 16:14 | 39.15960 | 36.01498 | 39154 ft | 490 kts | 104° |
| 2026-05-07 16:15 | 39.14413 | 36.09954 | 39156 ft | 490 kts | 98° |
| 2026-05-07 16:15 | 39.13308 | 36.18677 | 39165 ft | 491 kts | 97° |
| 2026-05-07 16:16 | 39.12228 | 36.27309 | 39168 ft | 490 kts | 97° |
| 2026-05-07 16:16 | 39.11119 | 36.36029 | 39167 ft | 490 kts | 97° |
| 2026-05-07 16:17 | 39.10012 | 36.44649 | 39168 ft | 490 kts | 97° |
| 2026-05-07 16:17 | 39.08883 | 36.53381 | 39167 ft | 490 kts | 97° |
| 2026-05-07 16:18 | 39.07762 | 36.61986 | 39184 ft | 490 kts | 97° |
| 2026-05-07 16:18 | 39.06623 | 36.70689 | 39184 ft | 491 kts | 98° |
| 2026-05-07 16:19 | 39.05489 | 36.79307 | 39189 ft | 492 kts | 98° |
| 2026-05-07 16:19 | 39.04341 | 36.87965 | 39196 ft | 492 kts | 98° |
| 2026-05-07 16:20 | 39.03187 | 36.96628 | 39187 ft | 492 kts | 98° |
| 2026-05-07 16:20 | 39.02023 | 37.05309 | 39185 ft | 492 kts | 98° |
| 2026-05-07 16:21 | 39.00858 | 37.13949 | 39192 ft | 492 kts | 98° |
| 2026-05-07 16:21 | 38.99673 | 37.22671 | 39202 ft | 492 kts | 98° |
| 2026-05-07 16:22 | 38.98490 | 37.31324 | 39205 ft | 492 kts | 98° |
| 2026-05-07 16:22 | 38.97296 | 37.40009 | 39195 ft | 491 kts | 99° |
| 2026-05-07 16:23 | 38.96102 | 37.48668 | 39184 ft | 492 kts | 99° |
| 2026-05-07 16:23 | 38.94904 | 37.57292 | 39190 ft | 493 kts | 99° |
| 2026-05-07 16:24 | 38.93689 | 37.65982 | 39187 ft | 492 kts | 99° |
| 2026-05-07 16:24 | 38.92475 | 37.74651 | 39185 ft | 492 kts | 99° |
| 2026-05-07 16:25 | 38.91266 | 37.83231 | 39179 ft | 491 kts | 99° |
| 2026-05-07 16:25 | 38.90044 | 37.91843 | 39176 ft | 491 kts | 100° |
| 2026-05-07 16:26 | 38.88785 | 38.00479 | 39171 ft | 492 kts | 100° |
| 2026-05-07 16:26 | 38.87524 | 38.09104 | 39173 ft | 492 kts | 100° |
| 2026-05-07 16:27 | 38.86276 | 38.17695 | 39173 ft | 492 kts | 100° |
| 2026-05-07 16:27 | 38.85016 | 38.26373 | 39170 ft | 492 kts | 100° |
| 2026-05-07 16:28 | 38.83767 | 38.34943 | 39163 ft | 492 kts | 100° |
| 2026-05-07 16:28 | 38.82497 | 38.43599 | 39159 ft | 492 kts | 100° |
| 2026-05-07 16:29 | 38.81240 | 38.52136 | 39148 ft | 492 kts | 100° |
| 2026-05-07 16:29 | 38.79954 | 38.60820 | 39146 ft | 492 kts | 100° |
| 2026-05-07 16:30 | 38.78680 | 38.69405 | 39145 ft | 492 kts | 101° |
| 2026-05-07 16:30 | 38.77402 | 38.78005 | 39137 ft | 493 kts | 101° |
| 2026-05-07 16:31 | 38.76108 | 38.86621 | 39140 ft | 493 kts | 101° |
| 2026-05-07 16:31 | 38.74813 | 38.95246 | 39129 ft | 492 kts | 101° |
| 2026-05-07 16:32 | 38.73544 | 39.03827 | 39125 ft | 492 kts | 101° |
| 2026-05-07 16:32 | 38.72269 | 39.12452 | 39123 ft | 493 kts | 101° |
| 2026-05-07 16:33 | 38.71044 | 39.21059 | 39123 ft | 493 kts | 98° |
| 2026-05-07 16:33 | 38.70390 | 39.29801 | 39125 ft | 494 kts | 93° |
| 2026-05-07 16:34 | 38.70011 | 39.38547 | 39121 ft | 495 kts | 93° |
| 2026-05-07 16:34 | 38.69621 | 39.47374 | 39124 ft | 495 kts | 94° |
| 2026-05-07 16:35 | 38.69208 | 39.56130 | 39123 ft | 495 kts | 94° |
| 2026-05-07 16:35 | 38.68803 | 39.64910 | 39126 ft | 495 kts | 93° |
| 2026-05-07 16:36 | 38.68405 | 39.73659 | 39124 ft | 495 kts | 94° |
| 2026-05-07 16:36 | 38.67999 | 39.82471 | 39125 ft | 495 kts | 94° |
| 2026-05-07 16:37 | 38.67588 | 39.91241 | 39124 ft | 495 kts | 94° |
| 2026-05-07 16:37 | 38.67171 | 40.00043 | 39118 ft | 497 kts | 94° |
| 2026-05-07 16:38 | 38.66746 | 40.08872 | 39122 ft | 497 kts | 94° |
| 2026-05-07 16:38 | 38.66317 | 40.17672 | 39116 ft | 497 kts | 95° |
| 2026-05-07 16:39 | 38.65878 | 40.26432 | 39114 ft | 497 kts | 95° |
| 2026-05-07 16:39 | 38.65434 | 40.35264 | 39116 ft | 497 kts | 95° |
| 2026-05-07 16:40 | 38.64994 | 40.44048 | 39120 ft | 497 kts | 95° |
| 2026-05-07 16:40 | 38.64768 | 40.48523 | 38989 ft | 498 kts | 95° |
| 2026-05-07 16:40 | 38.64540 | 40.52998 | 38729 ft | 492 kts | 95° |
| 2026-05-07 16:40 | 38.64321 | 40.57293 | 38471 ft | 482 kts | 95° |
| 2026-05-07 16:41 | 38.64106 | 40.61495 | 38222 ft | 474 kts | 95° |
| 2026-05-07 16:41 | 38.63891 | 40.65689 | 37973 ft | 471 kts | 95° |
| 2026-05-07 16:41 | 38.63677 | 40.69865 | 37744 ft | 470 kts | 95° |
| 2026-05-07 16:41 | 38.63462 | 40.74002 | 37517 ft | 470 kts | 95° |
| 2026-05-07 16:42 | 38.63245 | 40.78125 | 37290 ft | 470 kts | 95° |
| 2026-05-07 16:42 | 38.63021 | 40.82322 | 36999 ft | 470 kts | 96° |
| 2026-05-07 16:42 | 38.62781 | 40.86482 | 36603 ft | 471 kts | 96° |
| 2026-05-07 16:42 | 38.62528 | 40.90604 | 36096 ft | 471 kts | 96° |
| 2026-05-07 16:43 | 38.62269 | 40.94785 | 35489 ft | 473 kts | 96° |
| 2026-05-07 16:43 | 38.62011 | 40.98965 | 34851 ft | 475 kts | 96° |
| 2026-05-07 16:43 | 38.61752 | 41.03167 | 34180 ft | 478 kts | 96° |
| 2026-05-07 16:43 | 38.61492 | 41.07362 | 33499 ft | 481 kts | 96° |
| 2026-05-07 16:44 | 38.61232 | 41.11605 | 32845 ft | 485 kts | 96° |
| 2026-05-07 16:44 | 38.60965 | 41.15909 | 32117 ft | 490 kts | 96° |
| 2026-05-07 16:44 | 38.60695 | 41.20241 | 31533 ft | 489 kts | 96° |
| 2026-05-07 16:44 | 38.60430 | 41.24508 | 31007 ft | 486 kts | 97° |
| 2026-05-07 16:45 | 38.60164 | 41.28814 | 30452 ft | 483 kts | 97° |
| 2026-05-07 16:45 | 38.59899 | 41.33035 | 29929 ft | 479 kts | 97° |
| 2026-05-07 16:45 | 38.59629 | 41.37238 | 29399 ft | 475 kts | 97° |
| 2026-05-07 16:45 | 38.59360 | 41.41423 | 28902 ft | 470 kts | 97° |
| 2026-05-07 16:46 | 38.59104 | 41.45546 | 28445 ft | 465 kts | 96° |
| 2026-05-07 16:46 | 38.58857 | 41.49625 | 27985 ft | 460 kts | 96° |
| 2026-05-07 16:46 | 38.58614 | 41.53677 | 27536 ft | 454 kts | 96° |
| 2026-05-07 16:46 | 38.58377 | 41.57624 | 27102 ft | 449 kts | 96° |
| 2026-05-07 16:47 | 38.58139 | 41.61592 | 26661 ft | 443 kts | 96° |
| 2026-05-07 16:47 | 38.57905 | 41.65424 | 26276 ft | 437 kts | 96° |
| 2026-05-07 16:47 | 38.57671 | 41.69285 | 25856 ft | 431 kts | 96° |
| 2026-05-07 16:47 | 38.57438 | 41.73085 | 25436 ft | 426 kts | 96° |
| 2026-05-07 16:48 | 38.57207 | 41.76840 | 25012 ft | 421 kts | 96° |
| 2026-05-07 16:48 | 38.56979 | 41.80514 | 24595 ft | 416 kts | 96° |
| 2026-05-07 16:48 | 38.56752 | 41.84167 | 24159 ft | 411 kts | 96° |
| 2026-05-07 16:48 | 38.56526 | 41.87779 | 23750 ft | 406 kts | 96° |
| 2026-05-07 16:49 | 38.56304 | 41.91307 | 23345 ft | 401 kts | 96° |
| 2026-05-07 16:49 | 38.56079 | 41.94862 | 22929 ft | 397 kts | 96° |
| 2026-05-07 16:49 | 38.55858 | 41.98354 | 22531 ft | 393 kts | 95° |
| 2026-05-07 16:49 | 38.55638 | 42.01788 | 22149 ft | 388 kts | 95° |
| 2026-05-07 16:50 | 38.55420 | 42.05188 | 21758 ft | 385 kts | 95° |
| 2026-05-07 16:50 | 38.55201 | 42.08597 | 21350 ft | 382 kts | 95° |
| 2026-05-07 16:50 | 38.54985 | 42.11928 | 20960 ft | 379 kts | 95° |
| 2026-05-07 16:50 | 38.54769 | 42.15242 | 20576 ft | 376 kts | 95° |
| 2026-05-07 16:51 | 38.54550 | 42.18586 | 20176 ft | 374 kts | 95° |
| 2026-05-07 16:51 | 38.54337 | 42.21847 | 19773 ft | 371 kts | 95° |
| 2026-05-07 16:51 | 38.54121 | 42.25127 | 19369 ft | 369 kts | 95° |
| 2026-05-07 16:51 | 38.53905 | 42.28376 | 18979 ft | 367 kts | 95° |
| 2026-05-07 16:52 | 38.53689 | 42.31627 | 18585 ft | 365 kts | 95° |
| 2026-05-07 16:52 | 38.53475 | 42.34831 | 18188 ft | 362 kts | 95° |
| 2026-05-07 16:52 | 38.53264 | 42.37994 | 17805 ft | 361 kts | 95° |
| 2026-05-07 16:52 | 38.53050 | 42.41195 | 17403 ft | 359 kts | 95° |
| 2026-05-07 16:53 | 38.52838 | 42.44350 | 17004 ft | 357 kts | 95° |
| 2026-05-07 16:53 | 38.52629 | 42.47446 | 16619 ft | 355 kts | 95° |
| 2026-05-07 16:53 | 38.52414 | 42.50606 | 16224 ft | 353 kts | 95° |
| 2026-05-07 16:53 | 38.52204 | 42.53680 | 15837 ft | 351 kts | 95° |
| 2026-05-07 16:54 | 38.51993 | 42.56770 | 15441 ft | 350 kts | 95° |
| 2026-05-07 16:54 | 38.51782 | 42.59847 | 15060 ft | 348 kts | 95° |
| 2026-05-07 16:54 | 38.51571 | 42.62916 | 14655 ft | 346 kts | 95° |
| 2026-05-07 16:54 | 38.51360 | 42.65981 | 14264 ft | 345 kts | 95° |
| 2026-05-07 16:55 | 38.51151 | 42.68996 | 13871 ft | 343 kts | 95° |
| 2026-05-07 16:55 | 38.50941 | 42.72002 | 13475 ft | 341 kts | 95° |
| 2026-05-07 16:55 | 38.50731 | 42.74993 | 13100 ft | 339 kts | 96° |
| 2026-05-07 16:55 | 38.50386 | 42.77936 | 12712 ft | 336 kts | 104° |
| 2026-05-07 16:56 | 38.49586 | 42.80730 | 12321 ft | 334 kts | 116° |
| 2026-05-07 16:56 | 38.48459 | 42.83322 | 11931 ft | 332 kts | 120° |
| 2026-05-07 16:56 | 38.46098 | 42.88367 | 11121 ft | 331 kts | 121° |
| 2026-05-07 16:57 | 38.44927 | 42.90876 | 10717 ft | 330 kts | 120° |
| 2026-05-07 16:57 | 38.43766 | 42.93382 | 10310 ft | 329 kts | 120° |
| 2026-05-07 16:57 | 38.42623 | 42.95854 | 10130 ft | 319 kts | 120° |
| 2026-05-07 16:57 | 38.41521 | 42.98241 | 10050 ft | 307 kts | 120° |
| 2026-05-07 16:58 | 38.40451 | 43.00557 | 9828 ft | 301 kts | 120° |
| 2026-05-07 16:58 | 38.39396 | 43.02838 | 9572 ft | 296 kts | 120° |
| 2026-05-07 16:58 | 38.38358 | 43.05083 | 9304 ft | 293 kts | 120° |
| 2026-05-07 16:58 | 38.37329 | 43.07307 | 8889 ft | 294 kts | 120° |
| 2026-05-07 16:59 | 38.36303 | 43.09517 | 8792 ft | 284 kts | 120° |
| 2026-05-07 16:59 | 38.35316 | 43.11645 | 8725 ft | 273 kts | 120° |
| 2026-05-07 16:59 | 38.34376 | 43.13668 | 8672 ft | 261 kts | 120° |
| 2026-05-07 16:59 | 38.33596 | 43.15724 | 8497 ft | 254 kts | 101° |
| 2026-05-07 17:00 | 38.33745 | 43.17877 | 8315 ft | 245 kts | 64° |
| 2026-05-07 17:00 | 38.34696 | 43.19633 | 8153 ft | 237 kts | 48° |
| 2026-05-07 17:00 | 38.35786 | 43.21185 | 7975 ft | 232 kts | 47° |
| 2026-05-07 17:00 | 38.36820 | 43.22714 | 7797 ft | 227 kts | 49° |
| 2026-05-07 17:01 | 38.37797 | 43.24258 | 7648 ft | 223 kts | 50° |
| 2026-05-07 17:01 | 38.38903 | 43.25657 | 7632 ft | 222 kts | 37° |
| 2026-05-07 17:01 | 38.40130 | 43.26855 | 7625 ft | 222 kts | 35° |
| 2026-05-07 17:01 | 38.41379 | 43.28038 | 7616 ft | 223 kts | 35° |
| 2026-05-07 17:02 | 38.42607 | 43.29212 | 7613 ft | 223 kts | 35° |
| 2026-05-07 17:02 | 38.43858 | 43.30423 | 7612 ft | 223 kts | 36° |
| 2026-05-07 17:02 | 38.45073 | 43.31611 | 7613 ft | 223 kts | 36° |
| 2026-05-07 17:02 | 38.46303 | 43.32820 | 7614 ft | 223 kts | 36° |
| 2026-05-07 17:03 | 38.47541 | 43.34038 | 7616 ft | 223 kts | 36° |
| 2026-05-07 17:03 | 38.48764 | 43.35241 | 7616 ft | 223 kts | 36° |
| 2026-05-07 17:03 | 38.50001 | 43.36459 | 7618 ft | 223 kts | 36° |
| 2026-05-07 17:03 | 38.51225 | 43.37666 | 7620 ft | 223 kts | 36° |
| 2026-05-07 17:04 | 38.52514 | 43.38702 | 7657 ft | 216 kts | 15° |
| 2026-05-07 17:04 | 38.53914 | 43.38629 | 7644 ft | 195 kts | 336° |
| 2026-05-07 17:04 | 38.54946 | 43.37653 | 7622 ft | 185 kts | 309° |
| 2026-05-07 17:04 | 38.55545 | 43.36153 | 7625 ft | 193 kts | 284° |
| 2026-05-07 17:05 | 38.55553 | 43.34444 | 7620 ft | 196 kts | 257° |
| 2026-05-07 17:05 | 38.54910 | 43.32888 | 7630 ft | 210 kts | 229° |
| 2026-05-07 17:05 | 38.53655 | 43.31882 | 7622 ft | 218 kts | 198° |
| 2026-05-07 17:05 | 38.52151 | 43.31881 | 7620 ft | 222 kts | 165° |
| 2026-05-07 17:06 | 38.50845 | 43.32910 | 7633 ft | 224 kts | 138° |
| 2026-05-07 17:06 | 38.49617 | 43.34121 | 7609 ft | 222 kts | 156° |
| 2026-05-07 17:06 | 38.48115 | 43.34219 | 7592 ft | 218 kts | 200° |
| 2026-05-07 17:06 | 38.47004 | 43.33001 | 7597 ft | 213 kts | 244° |
| 2026-05-07 17:07 | 38.46750 | 43.31157 | 7623 ft | 212 kts | 272° |
| 2026-05-07 17:07 | 38.47014 | 43.29331 | 7617 ft | 212 kts | 289° |
| 2026-05-07 17:07 | 38.47498 | 43.27557 | 7611 ft | 212 kts | 281° |
| 2026-05-07 17:07 | 38.47316 | 43.25710 | 7600 ft | 214 kts | 246° |
| 2026-05-07 17:08 | 38.46338 | 43.24296 | 7611 ft | 217 kts | 213° |
| 2026-05-07 17:08 | 38.44883 | 43.23805 | 7613 ft | 221 kts | 179° |
| 2026-05-07 17:08 | 38.43454 | 43.24464 | 7613 ft | 223 kts | 143° |
| 2026-05-07 17:08 | 38.42575 | 43.26044 | 7614 ft | 224 kts | 107° |
| 2026-05-07 17:09 | 38.42544 | 43.27936 | 7598 ft | 207 kts | 72° |
| 2026-05-07 17:09 | 38.43233 | 43.29423 | 7588 ft | 185 kts | 46° |
| 2026-05-07 17:09 | 38.44149 | 43.30601 | 6880 ft | 208 kts | 42° |
| 2026-05-07 17:09 | 38.45312 | 43.31815 | 5853 ft | 224 kts | 33° |
| 2026-05-07 17:10 | 38.46545 | 43.32930 | 5467 ft | 206 kts | 36° |
| 2026-05-07 17:10 | 38.47548 | 43.34007 | 5589 ft | 165 kts | 36° |
| 2026-05-07 17:10 | 38.48317 | 43.34845 | 6191 ft | 149 kts | 28° |
| 2026-05-07 17:10 | 38.49273 | 43.35046 | 6779 ft | 140 kts | 337° |
| 2026-05-07 17:11 | 38.49921 | 43.34258 | 7190 ft | 140 kts | 285° |
| 2026-05-07 17:11 | 38.49683 | 43.32988 | 7067 ft | 171 kts | 221° |
| 2026-05-07 17:11 | 38.48456 | 43.32512 | 7136 ft | 202 kts | 189° |
| 2026-05-07 17:11 | 38.47079 | 43.32083 | 7211 ft | 208 kts | 206° |
| 2026-05-07 17:12 | 38.45842 | 43.31067 | 7458 ft | 210 kts | 218° |
| 2026-05-07 17:12 | 38.44692 | 43.29936 | 7679 ft | 211 kts | 219° |
| 2026-05-07 17:12 | 38.43536 | 43.28764 | 7963 ft | 213 kts | 220° |
| 2026-05-07 17:12 | 38.42415 | 43.27551 | 8260 ft | 214 kts | 222° |
| 2026-05-07 17:13 | 38.41291 | 43.26281 | 8564 ft | 215 kts | 223° |
| 2026-05-07 17:13 | 38.40078 | 43.25183 | 8839 ft | 217 kts | 198° |
| 2026-05-07 17:13 | 38.38622 | 43.25406 | 9261 ft | 218 kts | 145° |
| 2026-05-07 17:13 | 38.37916 | 43.26933 | 9467 ft | 201 kts | 87° |
| 2026-05-07 17:14 | 38.38577 | 43.28325 | 9114 ft | 188 kts | 24° |
| 2026-05-07 17:14 | 38.39874 | 43.28466 | 8349 ft | 198 kts | 355° |
| 2026-05-07 17:14 | 38.41237 | 43.28553 | 7809 ft | 195 kts | 8° |
| 2026-05-07 17:14 | 38.42536 | 43.29057 | 7142 ft | 201 kts | 21° |
| 2026-05-07 17:15 | 38.43609 | 43.30145 | 6669 ft | 195 kts | 44° |
| 2026-05-07 17:15 | 38.44677 | 43.31168 | 6073 ft | 194 kts | 26° |
| 2026-05-07 17:15 | 38.45763 | 43.32186 | 5515 ft | 194 kts | 36° |
| 2026-05-07 17:15 | 38.46766 | 43.33152 | 5443 ft | 157 kts | 37° |
| 2026-05-07 17:16 | 38.47382 | 43.33776 | 5464 ft | 71 kts | 35° |
| 2026-05-07 17:16 | 38.47605 | 43.33986 | 5471 ft | 28 kts | 40° |
| 2026-05-07 17:16 | 38.47729 | 43.34108 | 5476 ft | 17 kts | 14° |
| 2026-05-07 17:16 | 38.47811 | 43.34159 | 5476 ft | 13 kts | 111° |
| 2026-05-07 17:17 | 38.47742 | 43.34143 | 5476 ft | 11 kts | 217° |
| 2026-05-07 17:17 | 38.47651 | 43.34053 | 5473 ft | 26 kts | 218° |
| 2026-05-07 17:17 | 38.47507 | 43.33904 | 5468 ft | 25 kts | 218° |
| 2026-05-07 17:17 | 38.47368 | 43.33767 | 5463 ft | 24 kts | 217° |
| 2026-05-07 17:18 | 38.47242 | 43.33646 | 5458 ft | 21 kts | 217° |
| 2026-05-07 17:18 | 38.47126 | 43.33531 | 5454 ft | 20 kts | 218° |
| 2026-05-07 17:18 | 38.47022 | 43.33530 | 5454 ft | 15 kts | 125° |
| 2026-05-07 17:18 | 38.46967 | 43.33627 | 5455 ft | 10 kts | 114° |
| 2026-05-07 17:19 | 38.46950 | 43.33684 | 5457 ft | 6 kts | 121° |
| 2026-05-07 17:19 | 38.46935 | 43.33708 | 5457 ft | 0 kts | 127° |
| 2026-05-07 17:19 | 38.46933 | 43.33712 | 5457 ft | 0 kts | 127° |